Flight Track Log - Related Links

Times and Time Zones

All times are in EDT time to prevent confusion due to time zone crossing. See the N830QS flight status page for this flight to view local times or setup timezone preferences in your user account.

Time Position Orientation Groundspeed Altitude Reporting Facility
EDT Latitude Longitude Course Direction KTS MPH feet Rate Location/Type
Sat 07:02:26 PM 33.4025 -112.2072 259° West 274 315 8,400  Level Albuquerque Center
Sat 07:03:27 PM 33.4106 -112.3064 276° West 297 342 11,400 2,656 Climbing Albuquerque Center
Sat 07:04:28 PM 33.4189 -112.4083 276° West 307 353 13,800 2,274 Climbing Albuquerque Center
Sat 07:05:31 PM 33.4289 -112.5192 276° West 330 380 16,100 2,244 Climbing Albuquerque Center
Sat 07:06:31 PM 33.4383 -112.6394 275° West 344 396 18,400 2,213 Climbing Albuquerque Center
Sat 07:07:33 PM 33.4483 -112.7575 276° West 353 406 20,600 2,049 Climbing Albuquerque Center
Sat 07:08:34 PM 33.4633 -112.8769 279° West 361 415 22,600 1,967 Climbing Albuquerque Center
Sat 07:09:35 PM 33.4878 -112.9967 284° West 369 425 24,600 1,854 Climbing Albuquerque Center
Sat 07:10:37 PM 33.5103 -113.1189 282° West 375 432 26,400 1,902 Climbing Albuquerque Center
Sat 07:11:38 PM 33.5386 -113.2675 283° West 381 438 28,500 1,918 Climbing Albuquerque Center
Sat 07:12:39 PM 33.5611 -113.3903 282° West 380 437 30,300 1,756 Climbing Albuquerque Center
Sat 07:13:41 PM 33.5847 -113.5125 283° West 379 436 32,100 1,659 Climbing Albuquerque Center
Sat 07:14:42 PM 33.6067 -113.6353 282° West 378 435 33,700 934 Climbing Albuquerque Center
Sat 07:15:43 PM 33.6275 -113.7550 282° West 375 432 34,000 146 Climbing Albuquerque Center
Sat 07:16:45 PM 33.6492 -113.8856 281° West 385 443 34,000  Level Albuquerque Center
Sat 07:17:46 PM 33.6736 -114.0214 282° West 401 461 34,000  Level Albuquerque Center
Sat 07:18:47 PM 33.7106 -114.1497 289° West 404 465 34,000  Level Albuquerque Center
Sat 07:19:49 PM 33.7736 -114.3014 297° West 412 474 34,000  Level Albuquerque Center
Sat 07:20:50 PM 33.8186 -114.4258 294° West 411 473 34,000  Level Albuquerque Center
Sat 07:21:44 PM 33.8533 -114.5203 294° West 409 471 34,000  Level Los Angeles Center
Sat 07:22:45 PM 33.9078 -114.6722 293° West 413 475 34,000  Level Los Angeles Center
Sat 07:23:47 PM 33.9506 -114.7975 292° West 408 470 34,000  Level Los Angeles Center
Sat 07:24:49 PM 33.9961 -114.9239 294° West 410 472 34,000  Level Los Angeles Center
Sat 07:25:51 PM 34.0406 -115.0489 293° West 409 471 34,000  Level Los Angeles Center
Sat 07:26:53 PM 34.0844 -115.1753 293° West 410 472 34,000  Level Los Angeles Center
Sat 07:27:55 PM 34.1292 -115.3011 293° West 409 471 34,000  Level Los Angeles Center
Sat 07:28:56 PM 34.1811 -115.4500 293° West 405 466 34,000  Level Los Angeles Center
Sat 07:29:58 PM 34.2253 -115.5789 293° West 410 472 34,000  Level Los Angeles Center
Sat 07:31:00 PM 34.2689 -115.7050 293° West 410 472 34,000  Level Los Angeles Center
Sat 07:32:02 PM 34.3131 -115.8311 293° West 409 471 34,000  Level Los Angeles Center
Sat 07:33:04 PM 34.3375 -115.9567 283° West 408 470 34,000  Level Los Angeles Center
Sat 07:34:05 PM 34.3539 -116.1214 277° West 412 474 34,000  Level Los Angeles Center
Sat 07:35:07 PM 34.3678 -116.2594 277° West 414 476 34,000  Level Los Angeles Center
Sat 07:36:09 PM 34.3803 -116.3950 276° West 409 471 34,000  Level Los Angeles Center
Sat 07:37:11 PM 34.4164 -116.5242 289° West 404 465 34,000  Level Los Angeles Center
Sat 07:38:12 PM 34.4528 -116.6228 294° West 403 464 34,000  Level Los Angeles Center
Sat 07:39:15 PM 34.5089 -116.7731 294° West 408 470 34,000  Level Los Angeles Center
Sat 07:40:16 PM 34.5550 -116.8964 294° West 404 465 34,000  Level Los Angeles Center
Sat 07:41:18 PM 34.6100 -117.0456 294° West 403 464 34,000  Level Los Angeles Center
Sat 07:42:20 PM 34.6556 -117.1703 294° West 404 465 34,000  Level Los Angeles Center
Sat 07:43:22 PM 34.7025 -117.2981 294° West 404 465 34,000  Level Los Angeles Center
Sat 07:44:23 PM 34.7467 -117.4203 294° West 403 464 34,000  Level Los Angeles Center
Sat 07:45:25 PM 34.7928 -117.5475 294° West 407 468 34,000  Level Los Angeles Center
Sat 07:46:27 PM 34.8397 -117.6747 294° West 408 470 34,000  Level Los Angeles Center
Sat 07:47:29 PM 34.8853 -117.8022 294° West 407 468 34,000  Level Los Angeles Center
Sat 07:48:31 PM 34.9314 -117.9292 294° West 407 468 34,000  Level Los Angeles Center
Sat 07:49:32 PM 34.9775 -118.0550 294° West 404 465 34,000  Level Los Angeles Center
Sat 07:50:34 PM 35.0314 -118.2075 293° West 406 467 34,000  Level Los Angeles Center
Sat 07:51:36 PM 35.0764 -118.3333 294° West 404 465 34,000  Level Los Angeles Center
Sat 07:52:38 PM 35.1244 -118.4575 295° West 403 464 34,000  Level Los Angeles Center
Sat 07:53:40 PM 35.1817 -118.5647 303° West 403 464 34,000  Level Los Angeles Center
Sat 07:54:42 PM 35.2542 -118.7050 302° West 406 467 34,000  Level Los Angeles Center
Sat 07:55:43 PM 35.3139 -118.8211 302° West 403 464 34,000 -49 Level Los Angeles Center
Sat 07:56:45 PM 35.3728 -118.9392 301° West 407 468 33,900 -871 Descending Los Angeles Center
Sat 07:57:47 PM 35.4297 -119.0542 301° West 398 458 32,200 -1,790 Descending Los Angeles Center
Sat 07:58:49 PM 35.4894 -119.1700 302° West 402 463 30,200 -2,000 Descending Los Angeles Center
Sat 07:59:53 PM 35.5589 -119.3119 301° West 405 466 28,000 -1,056 Descending Los Angeles Center
Sat 08:00:54 PM 35.6197 -119.4314 302° West 411 473 28,000  Level Los Angeles Center
Sat 08:01:56 PM 35.6814 -119.5558 301° West 422 486 28,000  Level Los Angeles Center
Sat 08:02:58 PM 35.7419 -119.6817 301° West 429 494 28,000  Level Los Angeles Center
Sat 08:04:00 PM 35.8033 -119.8058 301° West 429 494 28,000  Level Los Angeles Center
Sat 08:05:02 PM 35.8653 -119.9314 301° West 430 495 28,000 -1,113 Level Los Angeles Center
Sat 08:06:04 PM 35.9386 -120.0831 301° West 433 498 25,700 -2,146 Descending Los Angeles Center
Sat 08:07:05 PM 35.9950 -120.2008 301° West 409 471 23,600 -1,902 Descending Los Angeles Center
Sat 08:08:07 PM 36.0519 -120.3183 301° West 403 464 21,800 -1,742 Descending Los Angeles Center
Sat 08:09:09 PM 36.1083 -120.4331 301° West 397 457 20,000 -1,708 Descending Los Angeles Center
Sat 08:10:24 PM 36.1728 -120.5686 301° West 388 447 17,900 -1,853 Descending Oakland Center
Sat 08:11:25 PM 36.2358 -120.6986 301° West 372 428 15,800 -1,918 Descending Oakland Center
Sat 08:12:26 PM 36.2850 -120.8036 300° West 358 412 14,000 -1,756 Descending Oakland Center
Sat 08:13:28 PM 36.3336 -120.9031 301° West 344 396 12,200 -1,756 Descending Oakland Center
Sat 08:14:29 PM 36.3817 -121.0022 301° West 338 389 10,400 -1,131 Descending Oakland Center
Sat 08:15:30 PM 36.4108 -121.1119 288° West 353 406 9,900 -492 Descending Oakland Center
Sat 08:16:31 PM 36.4283 -121.2211 281° West 332 382 9,400 -787 Descending Oakland Center
Sat 08:17:32 PM 36.4436 -121.3186 281° West 301 346 8,300 -1,131 Descending Oakland Center
Sat 08:18:33 PM 36.4600 -121.4150 282° West 290 334 7,100 -1,131 Descending Oakland Center
Sat 08:19:34 PM 36.4750 -121.5128 281° West 291 335 6,000 -1,180 Descending Oakland Center
Sat 08:20:35 PM 36.5003 -121.6056 289° West 290 334 4,700 -1,419 Descending Oakland Center
Sat 08:22:02 PM 36.5500 -121.7167 299° West 232 267 2,500 -1,265 Descending Northern Cal TRACON
Sat 08:23:02 PM 36.5667 -121.7833 287° West 171 197 1,600 -900 Descending Northern Cal TRACON

Login

Don't have an account? Register now (free) for customized features, flight alerts, and more!